Time;durP1;ratioP1;P1;durP2;ratioP2;P2;SDS_P1;SDS_P2;PMS_P1;PMS_P2;Temp;Humidity;BMP_temperature;BMP_pressure;BME280_temperature;BME280_humidity;BME280_pressure;Samples;Min_cycle;Max_cycle;Signal;HPM_P1;HPM_P2
2021/01/22 00:01:43;;;;;;;2.15;0.80;;;6.90;96.80;;;;;;5084168;28;20055;-86
2021/01/22 00:04:10;;;;;;;3.47;1.40;;;6.60;96.90;;;;;;5037527;28;20490;-84
2021/01/22 00:06:36;;;;;;;2.60;1.50;;;6.40;97.20;;;;;;5070834;28;20062;-84
2021/01/22 00:09:04;;;;;;;2.88;1.73;;;6.30;97.30;;;;;;5037590;28;20040;-83
2021/01/22 00:11:31;;;;;;;2.05;1.17;;;6.10;97.30;;;;;;5066846;28;20055;-84
2021/01/22 00:13:57;;;;;;;5.55;1.70;;;6.00;97.40;;;;;;5083054;28;20032;-84
2021/01/22 00:16:24;;;;;;;2.33;1.65;;;5.90;97.40;;;;;;5075236;28;20052;-83
2021/01/22 00:18:50;;;;;;;3.25;1.75;;;5.80;97.50;;;;;;5055368;28;20057;-83
2021/01/22 00:21:17;;;;;;;1.70;1.30;;;5.80;97.60;;;;;;5068856;28;20819;-83
2021/01/22 00:23:43;;;;;;;2.00;1.30;;;5.70;97.60;;;;;;5070569;28;20051;-83
2021/01/22 00:26:10;;;;;;;2.43;1.50;;;5.70;97.70;;;;;;5069041;28;20040;-84
2021/01/22 00:28:36;;;;;;;2.35;1.63;;;5.60;97.50;;;;;;5067757;28;20048;-84
2021/01/22 00:31:03;;;;;;;2.60;1.95;;;5.50;97.40;;;;;;5066991;28;20040;-84
2021/01/22 00:33:29;;;;;;;3.07;1.97;;;5.40;97.50;;;;;;5085508;28;20043;-84
2021/01/22 00:35:59;;;;;;;2.93;2.40;;;5.30;97.40;;;;;;5060753;28;20430;-84
2021/01/22 00:38:26;;;;;;;3.50;2.27;;;5.20;97.40;;;;;;5069196;28;20044;-83
2021/01/22 00:40:52;;;;;;;2.10;1.87;;;5.10;97.50;;;;;;5085421;28;20052;-84
2021/01/22 00:43:19;;;;;;;2.17;1.77;;;5.10;97.50;;;;;;5093396;28;20043;-83
2021/01/22 00:45:45;;;;;;;1.95;1.20;;;5.00;97.60;;;;;;5069489;28;20036;-84
2021/01/22 00:48:11;;;;;;;1.70;0.90;;;4.90;97.50;;;;;;5035947;28;20521;-85
2021/01/22 00:50:38;;;;;;;3.80;0.80;;;4.80;97.40;;;;;;5069097;28;20039;-87
2021/01/22 00:53:06;;;;;;;2.80;0.70;;;4.70;97.20;;;;;;5049576;28;20060;-88
2021/01/22 00:55:32;;;;;;;3.73;1.67;;;4.60;97.30;;;;;;5065924;28;20483;-87
2021/01/22 00:58:17;;;;;;;2.27;0.97;;;4.50;97.40;;;;;;5082976;28;20402;-85
2021/01/22 01:00:45;;;;;;;3.83;1.40;;;4.50;97.40;;;;;;5036299;28;20043;-85
2021/01/22 01:03:32;;;;;;;2.73;1.20;;;4.50;97.60;;;;;;5071100;28;20522;-88
2021/01/22 01:05:59;;;;;;;1.50;0.70;;;4.40;97.50;;;;;;5067765;28;20047;-86
2021/01/22 01:08:26;;;;;;;2.87;1.00;;;4.30;97.50;;;;;;5053443;28;20032;-84
2021/01/22 01:11:05;;;;;;;1.97;0.80;;;4.30;97.90;;;;;;5051080;28;20397;-83
2021/01/22 01:13:46;;;;;;;2.67;0.90;;;4.30;97.60;;;;;;5068064;28;20040;-84
2021/01/22 01:16:19;;;;;;;3.90;0.80;;;4.30;97.60;;;;;;5065918;28;20406;-83
2021/01/22 01:18:45;;;;;;;2.00;1.20;;;4.30;97.60;;;;;;5065826;28;20040;-83
2021/01/22 01:21:13;;;;;;;2.67;1.67;;;4.30;97.70;;;;;;5060532;28;20826;-84
2021/01/22 01:23:39;;;;;;;2.47;0.90;;;4.30;97.80;;;;;;5083554;28;20486;-80
2021/01/22 01:26:06;;;;;;;1.70;1.03;;;4.30;97.80;;;;;;5050614;28;20040;-83
2021/01/22 01:28:32;;;;;;;2.87;1.10;;;4.30;97.90;;;;;;5034996;28;20044;-84
2021/01/22 01:30:59;;;;;;;2.77;1.50;;;4.30;97.90;;;;;;5034306;28;20494;-84
2021/01/22 01:33:25;;;;;;;3.77;1.57;;;4.40;97.90;;;;;;5055244;28;20040;-83
2021/01/22 01:35:52;;;;;;;3.93;1.43;;;4.30;97.90;;;;;;5033690;28;20825;-83
2021/01/22 01:38:19;;;;;;;2.10;1.50;;;4.40;97.90;;;;;;5065515;28;20041;-83
2021/01/22 01:40:46;;;;;;;3.30;1.73;;;4.40;98.00;;;;;;5034617;28;20777;-81
2021/01/22 01:43:13;;;;;;;2.43;1.60;;;4.40;97.90;;;;;;5068009;28;20032;-81
2021/01/22 01:45:41;;;;;;;2.43;1.17;;;4.40;97.90;;;;;;5082812;28;20395;-81
2021/01/22 01:48:09;;;;;;;3.70;1.57;;;4.40;98.00;;;;;;5083906;28;20052;-81
2021/01/22 01:50:37;;;;;;;4.67;1.73;;;4.40;98.30;;;;;;5067284;28;20044;-81
2021/01/22 01:53:05;;;;;;;3.20;1.37;;;4.40;98.00;;;;;;5065255;28;20056;-80
2021/01/22 01:55:33;;;;;;;2.50;1.60;;;4.40;98.00;;;;;;5067370;28;20059;-81
2021/01/22 01:58:03;;;;;;;5.20;1.93;;;4.40;98.10;;;;;;5064693;28;20049;-81
2021/01/22 02:00:33;;;;;;;2.23;1.40;;;4.40;98.00;;;;;;5061546;28;20040;-81
2021/01/22 02:03:00;;;;;;;5.73;2.30;;;4.40;98.10;;;;;;5066213;28;20083;-81
2021/01/22 02:05:27;;;;;;;3.33;2.30;;;4.40;98.10;;;;;;5083926;28;20789;-81
2021/01/22 02:07:54;;;;;;;2.53;1.43;;;4.40;98.10;;;;;;5067329;28;20040;-81
2021/01/22 02:10:21;;;;;;;5.03;2.50;;;4.50;98.10;;;;;;5085422;28;20039;-81
2021/01/22 02:12:49;;;;;;;4.23;2.30;;;4.50;98.10;;;;;;5084142;28;20831;-82
2021/01/22 02:15:18;;;;;;;5.07;2.53;;;4.50;98.20;;;;;;5067982;28;20403;-83
2021/01/22 02:17:46;;;;;;;3.27;1.73;;;4.50;98.10;;;;;;5050356;28;20079;-81
2021/01/22 02:20:50;;;;;;;2.87;2.23;;;4.50;98.20;;;;;;5066944;28;20545;-81
2021/01/22 02:23:19;;;;;;;6.80;3.30;;;4.50;98.20;;;;;;5082842;28;20047;-84
2021/01/22 02:25:49;;;;;;;7.70;3.27;;;4.50;98.20;;;;;;5062452;28;20170;-84
2021/01/22 02:28:17;;;;;;;7.07;3.37;;;4.50;98.20;;;;;;5067592;28;20044;-84
2021/01/22 02:30:45;;;;;;;5.17;3.67;;;4.50;98.20;;;;;;5066320;28;20047;-83
2021/01/22 02:33:14;;;;;;;7.47;3.87;;;4.50;98.30;;;;;;5067544;28;20570;-84
2021/01/22 02:35:41;;;;;;;5.50;3.57;;;4.50;98.20;;;;;;5075794;28;20040;-83
2021/01/22 02:38:09;;;;;;;7.70;5.23;;;4.50;98.30;;;;;;5067570;28;20054;-83
2021/01/22 02:40:37;;;;;;;8.63;4.83;;;4.50;98.30;;;;;;5080534;28;20047;-83
2021/01/22 02:43:06;;;;;;;5.90;4.00;;;4.50;98.30;;;;;;5081805;28;20482;-83
2021/01/22 02:45:33;;;;;;;9.27;6.57;;;4.50;98.40;;;;;;5067732;28;20039;-83
2021/01/22 02:48:00;;;;;;;8.13;5.37;;;4.60;98.40;;;;;;5067494;28;20047;-83
2021/01/22 02:50:35;;;;;;;9.30;6.07;;;4.50;98.40;;;;;;5034400;28;20407;-83
2021/01/22 02:53:06;;;;;;;10.10;6.57;;;4.50;98.40;;;;;;5065524;28;20495;-83
2021/01/22 02:55:35;;;;;;;14.50;7.30;;;4.50;98.40;;;;;;5072744;28;20426;-84
2021/01/22 02:58:33;;;;;;;9.53;6.17;;;4.50;98.40;;;;;;5070194;28;20043;-83
2021/01/22 03:01:09;;;;;;;13.70;8.30;;;4.50;98.40;;;;;;5070894;28;20394;-83
2021/01/22 03:04:11;;;;;;;11.50;7.83;;;4.50;98.50;;;;;;5070636;28;20036;-83
2021/01/22 03:06:44;;;;;;;15.87;8.73;;;4.50;98.50;;;;;;5037806;28;20036;-82
2021/01/22 03:09:18;;;;;;;15.53;10.13;;;4.40;98.50;;;;;;5067414;28;20036;-83
2021/01/22 03:11:49;;;;;;;12.80;8.73;;;4.40;98.50;;;;;;5086812;28;20040;-83
2021/01/22 03:14:18;;;;;;;17.70;11.20;;;4.30;98.50;;;;;;5070816;28;20036;-83
2021/01/22 03:16:47;;;;;;;16.87;10.50;;;4.30;98.60;;;;;;5053838;28;20481;-83
2021/01/22 03:19:13;;;;;;;16.60;10.57;;;4.30;98.60;;;;;;5087492;28;20032;-83
2021/01/22 03:21:40;;;;;;;11.10;8.20;;;4.30;98.70;;;;;;5053115;28;20040;-83
2021/01/22 03:24:07;;;;;;;16.80;10.33;;;4.30;98.60;;;;;;5053954;28;20047;-83
2021/01/22 03:26:33;;;;;;;17.70;10.27;;;4.20;98.60;;;;;;5035889;28;20044;-82
2021/01/22 03:29:00;;;;;;;14.67;9.27;;;4.20;98.70;;;;;;5054358;28;20040;-82
2021/01/22 03:31:26;;;;;;;14.17;9.50;;;4.20;98.80;;;;;;5068402;28;20047;-83
2021/01/22 03:33:53;;;;;;;13.50;9.93;;;4.10;98.80;;;;;;5068249;28;20044;-83
2021/01/22 03:36:20;;;;;;;18.17;10.97;;;4.10;98.80;;;;;;5086945;28;20044;-83
2021/01/22 03:38:46;;;;;;;12.77;9.43;;;4.10;98.80;;;;;;5050934;28;20048;-83
2021/01/22 03:41:14;;;;;;;18.10;11.90;;;4.10;98.90;;;;;;5065936;28;20032;-83
2021/01/22 03:43:40;;;;;;;14.13;10.00;;;4.10;99.00;;;;;;5074719;28;20036;-82
2021/01/22 03:46:07;;;;;;;14.53;9.37;;;4.20;99.00;;;;;;5039366;28;20052;-83
2021/01/22 03:48:33;;;;;;;13.80;9.23;;;4.20;98.90;;;;;;5066822;28;20048;-82
2021/01/22 03:51:00;;;;;;;12.93;10.37;;;4.20;98.90;;;;;;5071787;28;20040;-81
2021/01/22 03:53:26;;;;;;;11.03;7.73;;;4.20;98.90;;;;;;5065378;28;20059;-82
2021/01/22 03:55:53;;;;;;;11.83;7.90;;;4.20;98.90;;;;;;5088208;28;20040;-81
2021/01/22 03:58:20;;;;;;;10.03;6.50;;;4.10;98.80;;;;;;5041771;28;20044;-81
2021/01/22 04:00:46;;;;;;;9.57;5.83;;;4.10;98.80;;;;;;5054542;28;20522;-82
2021/01/22 04:03:13;;;;;;;10.67;6.80;;;4.00;98.80;;;;;;5069550;28;20051;-82
2021/01/22 04:05:39;;;;;;;9.10;6.27;;;3.90;98.90;;;;;;5037792;28;20031;-82
2021/01/22 04:08:06;;;;;;;10.93;5.70;;;3.90;99.00;;;;;;5072990;28;20048;-81
2021/01/22 04:10:33;;;;;;;9.97;5.67;;;3.90;99.00;;;;;;5088915;28;20040;-81
2021/01/22 04:12:59;;;;;;;9.90;5.57;;;3.90;99.00;;;;;;5061501;28;20032;-83
2021/01/22 04:15:26;;;;;;;10.17;5.77;;;3.90;99.10;;;;;;5070421;28;20522;-82
2021/01/22 04:17:52;;;;;;;7.20;4.33;;;3.90;99.20;;;;;;5085409;28;20052;-83
2021/01/22 04:20:22;;;;;;;8.30;4.80;;;3.90;99.20;;;;;;5030998;28;20040;-83
2021/01/22 04:22:49;;;;;;;5.77;3.90;;;3.90;99.30;;;;;;5068981;28;20048;-83
2021/01/22 04:25:16;;;;;;;7.10;3.80;;;4.00;99.30;;;;;;5086148;28;20044;-83
2021/01/22 04:27:43;;;;;;;5.33;3.27;;;4.10;99.30;;;;;;5068927;28;20036;-83
2021/01/22 04:30:10;;;;;;;7.00;3.30;;;4.20;99.30;;;;;;5084836;28;20059;-82
2021/01/22 04:32:38;;;;;;;5.07;3.47;;;4.20;99.30;;;;;;5036232;28;20048;-84
2021/01/22 04:35:06;;;;;;;9.07;4.33;;;4.20;99.30;;;;;;5069158;28;20040;-83
2021/01/22 04:37:32;;;;;;;5.53;3.53;;;4.30;99.20;;;;;;5051456;28;20045;-83
2021/01/22 04:39:59;;;;;;;10.50;4.83;;;4.40;99.20;;;;;;5068015;28;20028;-83
2021/01/22 04:42:25;;;;;;;7.47;4.70;;;4.40;99.20;;;;;;5034942;28;20028;-83
2021/01/22 04:44:52;;;;;;;6.27;3.57;;;4.40;99.20;;;;;;5067782;28;20040;-83
2021/01/22 04:47:19;;;;;;;8.70;4.20;;;4.40;99.10;;;;;;5033530;28;20037;-83
2021/01/22 04:49:49;;;;;;;9.10;4.03;;;4.40;99.10;;;;;;5086039;28;20052;-83
2021/01/22 04:52:17;;;;;;;8.23;4.27;;;4.50;99.10;;;;;;5072577;28;20058;-83
2021/01/22 04:54:47;;;;;;;9.60;4.60;;;4.50;99.10;;;;;;5075727;28;20048;-82
2021/01/22 04:57:15;;;;;;;7.40;4.60;;;4.50;99.10;;;;;;5083490;28;20049;-83
2021/01/22 04:59:49;;;;;;;6.73;4.40;;;4.50;99.10;;;;;;5084683;28;20474;-83
2021/01/22 05:02:17;;;;;;;8.77;5.23;;;4.50;99.10;;;;;;5068315;28;20048;-83
2021/01/22 05:04:43;;;;;;;8.83;5.23;;;4.50;99.10;;;;;;5068255;28;20043;-83
2021/01/22 05:07:11;;;;;;;9.73;4.50;;;4.50;99.00;;;;;;5080154;28;20043;-83
2021/01/22 05:09:39;;;;;;;9.60;6.37;;;4.50;99.00;;;;;;5085179;28;20040;-82
2021/01/22 05:12:07;;;;;;;9.87;5.97;;;4.50;99.00;;;;;;5084252;28;20478;-82
2021/01/22 05:14:34;;;;;;;12.43;6.93;;;4.50;99.00;;;;;;5063008;28;20044;-82
2021/01/22 05:17:07;;;;;;;9.87;6.97;;;4.50;98.90;;;;;;5067951;28;20044;-82
2021/01/22 05:19:35;;;;;;;11.73;7.57;;;4.50;99.00;;;;;;5084171;28;20055;-82
2021/01/22 05:22:02;;;;;;;8.33;6.80;;;4.50;99.00;;;;;;5083020;28;20063;-82
2021/01/22 05:24:30;;;;;;;19.10;11.13;;;4.50;99.00;;;;;;5066011;28;20037;-81
2021/01/22 05:27:05;;;;;;;15.37;10.50;;;4.60;99.00;;;;;;5034698;28;20038;-81
2021/01/22 05:29:33;;;;;;;17.95;11.48;;;4.50;99.00;;;;;;5083691;28;20051;-81
2021/01/22 05:32:02;;;;;;;20.43;12.10;;;4.60;99.00;;;;;;5065381;28;20036;-81
2021/01/22 05:34:46;;;;;;;25.47;14.83;;;4.60;99.00;;;;;;5082981;28;20051;-86
2021/01/22 05:37:13;;;;;;;22.80;15.57;;;4.60;99.00;;;;;;5059075;28;20032;-82
2021/01/22 05:39:39;;;;;;;22.67;16.50;;;4.60;99.00;;;;;;5068219;28;20043;-83
2021/01/22 05:42:07;;;;;;;28.00;16.27;;;4.60;99.20;;;;;;5083239;28;20048;-85
2021/01/22 05:44:34;;;;;;;31.90;17.53;;;4.60;99.00;;;;;;5082547;28;20040;-85
2021/01/22 05:47:09;;;;;;;33.20;21.87;;;4.60;98.90;;;;;;5053003;28;20036;-87
2021/01/22 05:49:58;;;;;;;31.23;18.30;;;4.60;98.90;;;;;;5084359;28;20054;-83
2021/01/22 05:52:25;;;;;;;33.87;21.73;;;4.60;98.90;;;;;;5072259;28;20063;-84
2021/01/22 05:54:52;;;;;;;27.37;19.37;;;4.70;98.90;;;;;;5051626;28;20040;-83
2021/01/22 05:57:19;;;;;;;31.17;19.60;;;4.70;98.90;;;;;;5080068;28;20078;-83
2021/01/22 05:59:45;;;;;;;25.65;18.38;;;4.70;98.90;;;;;;5067696;28;20044;-82
2021/01/22 06:02:26;;;;;;;31.83;22.40;;;4.60;98.90;;;;;;5067524;28;20036;-91
2021/01/22 06:05:18;;;;;;;38.23;24.50;;;4.70;98.90;;;;;;5068458;28;20036;-89
2021/01/22 06:07:46;;;;;;;39.30;23.98;;;4.70;98.90;;;;;;5051822;28;20047;-88
2021/01/22 06:10:24;;;;;;;36.83;22.53;;;4.70;98.80;;;;;;5067964;28;20495;-84
2021/01/22 06:12:54;;;;;;;38.53;26.10;;;4.60;98.80;;;;;;5068933;28;20462;-86
2021/01/22 06:15:23;;;;;;;34.83;22.93;;;4.70;98.80;;;;;;5065569;28;20041;-85
2021/01/22 06:17:53;;;;;;;35.63;24.63;;;4.70;98.80;;;;;;5049093;28;20036;-84
2021/01/22 06:20:56;;;;;;;;;;;;;;;;;;;;;
2021/01/22 06:23:34;;;;;;;37.13;26.47;;;4.70;98.80;;;;;;5083353;28;20043;-86
2021/01/22 06:26:03;;;;;;;46.37;29.70;;;4.70;98.80;;;;;;5065962;28;20063;-84
2021/01/22 06:28:31;;;;;;;36.67;24.53;;;4.70;98.80;;;;;;5080073;28;20047;-87
2021/01/22 06:31:05;;;;;;;37.47;26.77;;;4.70;98.80;;;;;;5039842;28;20041;-84
2021/01/22 06:33:34;;;;;;;37.78;26.63;;;4.80;98.80;;;;;;5046620;28;20056;-85
2021/01/22 06:36:01;;;;;;;44.20;29.27;;;4.70;99.00;;;;;;5053095;28;20455;-85
2021/01/22 06:38:30;;;;;;;36.80;26.73;;;4.70;98.70;;;;;;5013520;28;20043;-84
2021/01/22 06:40:57;;;;;;;44.13;29.53;;;4.70;98.70;;;;;;5041672;28;20041;-84
2021/01/22 06:43:24;;;;;;;44.43;29.90;;;4.70;98.70;;;;;;5004387;28;20037;-85
2021/01/22 06:45:59;;;;;;;43.17;27.33;;;4.70;98.70;;;;;;5042389;28;20586;-85
2021/01/22 06:48:25;;;;;;;40.50;25.93;;;4.70;98.70;;;;;;5040227;28;20499;-85
2021/01/22 06:51:16;;;;;;;44.87;28.57;;;4.80;98.70;;;;;;5009709;28;20067;-85
2021/01/22 06:54:16;;;;;;;41.47;28.13;;;4.70;98.70;;;;;;5018178;28;20080;-86
2021/01/22 06:56:55;;;;;;;42.27;27.23;;;4.70;98.70;;;;;;5025394;28;20044;-85
2021/01/22 06:59:34;;;;;;;37.33;26.35;;;4.70;98.60;;;;;;5035905;28;20521;-85
2021/01/22 07:02:01;;;;;;;41.77;26.13;;;4.60;98.60;;;;;;5036878;28;20056;-85
2021/01/22 07:04:52;;;;;;;36.17;23.07;;;4.60;98.70;;;;;;5069428;28;20039;-85
2021/01/22 07:07:47;;;;;;;37.00;23.23;;;4.70;98.70;;;;;;5086030;28;20032;-85
2021/01/22 07:10:14;;;;;;;40.63;25.90;;;4.60;98.60;;;;;;5084368;28;20497;-85
2021/01/22 07:12:42;;;;;;;38.97;24.73;;;4.60;98.60;;;;;;5083573;28;20047;-85
2021/01/22 07:15:21;;;;;;;29.77;21.27;;;4.50;98.60;;;;;;5052822;28;20043;-84
2021/01/22 07:17:48;;;;;;;30.97;21.10;;;4.50;98.60;;;;;;5086933;28;20391;-85
2021/01/22 07:20:15;;;;;;;37.57;23.17;;;4.50;98.70;;;;;;5068927;28;20036;-85
2021/01/22 07:22:56;;;;;;;35.50;24.30;;;4.50;98.70;;;;;;5051200;28;20031;-85
2021/01/22 07:25:30;;;;;;;35.00;22.43;;;4.50;98.70;;;;;;5083342;28;20047;-84
2021/01/22 07:27:56;;;;;;;37.87;24.27;;;4.50;98.70;;;;;;5067793;28;20040;-85
2021/01/22 07:30:23;;;;;;;35.20;24.23;;;4.60;98.70;;;;;;5068638;28;20037;-85
2021/01/22 07:32:54;;;;;;;34.30;22.50;;;4.60;98.70;;;;;;5085760;28;20043;-85
2021/01/22 07:35:23;;;;;;;30.47;21.03;;;4.60;98.70;;;;;;5036495;28;20044;-84
2021/01/22 07:37:50;;;;;;;36.23;23.07;;;4.60;98.60;;;;;;5068645;28;20032;-85
2021/01/22 07:40:18;;;;;;;31.63;22.13;;;4.60;98.60;;;;;;5084654;28;20052;-84
2021/01/22 07:42:46;;;;;;;33.73;22.33;;;4.60;98.60;;;;;;5067591;28;20518;-85
2021/01/22 07:45:15;;;;;;;32.07;22.90;;;4.60;98.60;;;;;;5085929;28;20318;-84
2021/01/22 07:47:43;;;;;;;33.33;22.70;;;4.70;98.60;;;;;;5072497;28;20036;-85
2021/01/22 07:50:18;;;;;;;33.77;21.60;;;4.70;98.60;;;;;;5053937;28;20048;-86
2021/01/22 07:52:50;;;;;;;32.63;20.20;;;4.60;98.50;;;;;;5078602;28;20066;-86
2021/01/22 07:55:21;;;;;;;33.17;22.23;;;4.60;98.50;;;;;;5068432;28;20044;-85
2021/01/22 07:58:09;;;;;;;31.10;20.60;;;4.70;98.50;;;;;;5084133;28;20047;-85
2021/01/22 08:00:38;;;;;;;34.93;21.17;;;4.60;98.50;;;;;;5059330;28;20048;-85
2021/01/22 08:03:05;;;;;;;31.00;20.67;;;4.60;98.50;;;;;;5066721;28;20032;-84
2021/01/22 08:05:35;;;;;;;28.80;19.47;;;4.60;98.50;;;;;;5049812;28;20514;-85
2021/01/22 08:08:23;;;;;;;33.60;21.83;;;4.60;98.50;;;;;;5079229;28;20505;-85
2021/01/22 08:10:50;;;;;;;34.03;19.90;;;4.60;98.50;;;;;;5067130;28;20037;-85
2021/01/22 08:13:17;;;;;;;32.27;21.23;;;4.60;98.50;;;;;;5068251;28;20051;-85
2021/01/22 08:15:44;;;;;;;32.70;21.73;;;4.60;98.50;;;;;;5051188;28;20047;-83
2021/01/22 08:18:15;;;;;;;33.97;21.53;;;4.70;98.60;;;;;;5084552;28;20067;-84
2021/01/22 08:21:00;;;;;;;32.93;21.13;;;4.70;98.50;;;;;;5082451;28;20047;-84
2021/01/22 08:23:34;;;;;;;33.40;21.17;;;4.70;98.50;;;;;;5051679;28;20040;-84
2021/01/22 08:26:01;;;;;;;33.30;20.57;;;4.70;98.50;;;;;;5050618;28;20044;-85
2021/01/22 08:28:28;;;;;;;32.47;18.90;;;4.80;98.40;;;;;;5083138;28;20040;-85
2021/01/22 08:30:54;;;;;;;30.20;20.00;;;4.80;98.40;;;;;;5051029;28;20040;-85
2021/01/22 08:33:27;;;;;;;40.33;26.20;;;4.80;98.40;;;;;;5089820;28;20044;-85
2021/01/22 08:36:06;;;;;;;33.42;22.73;;;4.80;98.30;;;;;;5063910;28;20394;-85
2021/01/22 08:38:33;;;;;;;35.73;21.33;;;4.80;98.30;;;;;;5066621;28;20056;-85
2021/01/22 08:41:00;;;;;;;31.03;19.73;;;4.80;98.30;;;;;;5076588;28;20028;-85
2021/01/22 08:43:27;;;;;;;29.73;18.87;;;4.80;98.30;;;;;;5051256;28;20047;-85
2021/01/22 08:46:09;;;;;;;29.13;18.33;;;4.80;98.30;;;;;;5063033;28;20032;-84
2021/01/22 08:48:39;;;;;;;31.25;18.30;;;4.80;98.30;;;;;;5069128;28;20035;-84
2021/01/22 08:51:06;;;;;;;32.60;21.33;;;4.80;98.30;;;;;;5064690;28;20032;-84
2021/01/22 08:53:34;;;;;;;27.30;17.73;;;4.80;98.30;;;;;;5049270;28;20051;-84
2021/01/22 08:56:10;;;;;;;30.20;19.15;;;4.80;98.30;;;;;;5084134;28;20409;-83
2021/01/22 08:58:59;;;;;;;29.57;17.37;;;4.90;98.20;;;;;;5066103;28;20509;-83
2021/01/22 09:01:53;;;;;;;26.25;16.88;;;4.90;98.30;;;;;;5048168;28;20032;-81
2021/01/22 09:04:27;;;;;;;31.63;17.73;;;4.90;98.20;;;;;;5051321;28;20470;-83
2021/01/22 09:06:56;;;;;;;27.37;18.20;;;4.90;98.20;;;;;;5048847;28;20031;-84
2021/01/22 09:09:36;;;;;;;24.42;16.88;;;4.90;98.10;;;;;;5066207;28;20047;-86
2021/01/22 09:12:18;;;;;;;28.33;18.70;;;4.90;98.10;;;;;;5079973;28;20055;-83
2021/01/22 09:15:07;;;;;;;25.87;16.93;;;4.90;98.20;;;;;;5084896;28;20039;-81
2021/01/22 09:17:39;;;;;;;27.30;16.30;;;5.00;98.10;;;;;;5049728;28;20043;-86
2021/01/22 09:20:15;;;;;;;22.13;12.90;;;5.00;98.10;;;;;;5081669;28;20051;-85
2021/01/22 09:22:43;;;;;;;24.15;13.18;;;5.00;98.10;;;;;;5066327;28;20028;-86
2021/01/22 09:25:18;;;;;;;23.23;15.60;;;5.00;98.10;;;;;;5051532;28;20032;-85
2021/01/22 09:27:46;;;;;;;23.60;15.30;;;5.00;98.10;;;;;;5067589;28;20032;-86
2021/01/22 09:30:18;;;;;;;22.70;13.87;;;5.10;98.20;;;;;;5053137;28;20036;-87
2021/01/22 09:32:48;;;;;;;23.95;14.98;;;5.10;98.20;;;;;;5085478;28;20040;-86
2021/01/22 09:35:16;;;;;;;25.23;15.17;;;5.20;98.20;;;;;;5055006;28;20039;-86
2021/01/22 09:37:42;;;;;;;19.33;14.23;;;5.20;98.10;;;;;;5086695;28;20036;-82
2021/01/22 09:40:10;;;;;;;24.73;14.43;;;5.20;98.00;;;;;;5069833;28;20039;-83
2021/01/22 09:42:37;;;;;;;24.85;14.68;;;5.20;98.00;;;;;;5069298;28;20036;-83
2021/01/22 09:45:06;;;;;;;22.97;15.00;;;5.20;98.00;;;;;;5068566;28;20055;-81
2021/01/22 09:47:32;;;;;;;21.23;13.77;;;5.30;97.90;;;;;;5065471;28;20047;-83
2021/01/22 09:49:59;;;;;;;22.33;13.93;;;5.20;97.80;;;;;;5032749;28;20047;-83
2021/01/22 09:52:25;;;;;;;21.13;14.52;;;5.20;97.90;;;;;;5047743;28;20055;-83
2021/01/22 09:54:54;;;;;;;25.33;15.70;;;5.20;97.90;;;;;;5049175;28;20040;-83
2021/01/22 09:57:21;;;;;;;27.53;14.33;;;5.20;97.90;;;;;;5058531;28;20032;-83
2021/01/22 09:59:47;;;;;;;17.38;13.40;;;5.30;98.00;;;;;;5066382;28;20482;-83
2021/01/22 10:02:14;;;;;;;23.23;13.83;;;5.40;97.90;;;;;;5049358;28;20036;-83
2021/01/22 10:04:41;;;;;;;22.27;12.30;;;5.40;97.90;;;;;;5075108;28;20047;-82
2021/01/22 10:07:07;;;;;;;22.35;13.65;;;5.40;97.80;;;;;;5031826;28;20396;-82
2021/01/22 10:09:34;;;;;;;20.92;13.38;;;5.50;97.80;;;;;;5081908;28;20059;-83
2021/01/22 10:12:01;;;;;;;23.65;12.18;;;5.50;97.80;;;;;;5047971;28;20043;-83
2021/01/22 10:14:27;;;;;;;22.90;11.05;;;5.60;98.00;;;;;;5066401;28;20040;-83
2021/01/22 10:16:54;;;;;;;21.63;11.60;;;5.70;97.90;;;;;;5046190;28;20044;-82
2021/01/22 10:19:21;;;;;;;21.33;11.02;;;5.80;97.80;;;;;;5081761;28;20047;-83
2021/01/22 10:21:47;;;;;;;15.50;10.33;;;5.90;97.90;;;;;;5065584;28;20036;-83
2021/01/22 10:24:14;;;;;;;18.70;10.00;;;5.90;97.80;;;;;;5066554;28;20036;-83
2021/01/22 10:26:40;;;;;;;16.75;9.20;;;6.10;97.80;;;;;;5064264;28;20032;-82
2021/01/22 10:29:07;;;;;;;17.85;11.15;;;6.10;97.60;;;;;;5066174;28;20593;-82
2021/01/22 10:31:33;;;;;;;15.98;9.45;;;6.10;97.50;;;;;;5053666;28;20044;-83
2021/01/22 10:34:00;;;;;;;17.73;9.07;;;6.10;97.40;;;;;;5063935;28;20052;-82
2021/01/22 10:36:26;;;;;;;15.38;8.40;;;6.20;97.40;;;;;;5064788;28;20028;-82
2021/01/22 10:38:53;;;;;;;20.38;9.60;;;6.20;97.50;;;;;;5065874;28;20036;-82
2021/01/22 10:41:19;;;;;;;18.88;9.10;;;6.30;97.40;;;;;;5064833;28;20393;-82
2021/01/22 10:43:46;;;;;;;17.23;8.45;;;6.40;97.30;;;;;;5081479;28;20055;-83
2021/01/22 10:46:12;;;;;;;16.20;9.40;;;6.40;97.10;;;;;;5080069;28;20048;-83
2021/01/22 10:48:39;;;;;;;13.45;8.23;;;6.50;97.00;;;;;;5065983;28;20028;-82
2021/01/22 10:51:07;;;;;;;16.02;8.05;;;6.60;97.00;;;;;;5087322;28;20044;-82
2021/01/22 10:53:33;;;;;;;19.45;9.10;;;6.70;97.30;;;;;;5080773;28;20517;-82
2021/01/22 10:56:00;;;;;;;15.40;7.85;;;6.80;97.00;;;;;;5080430;28;20553;-83
2021/01/22 10:58:26;;;;;;;17.90;8.20;;;6.90;96.90;;;;;;5082007;28;20048;-83
2021/01/22 11:00:54;;;;;;;17.02;8.35;;;6.90;96.80;;;;;;5064791;28;20060;-82
2021/01/22 11:03:21;;;;;;;20.42;8.23;;;7.00;96.60;;;;;;5049181;28;20043;-82
2021/01/22 11:05:47;;;;;;;15.10;7.70;;;7.00;96.40;;;;;;5064533;28;20045;-82
2021/01/22 11:08:14;;;;;;;14.15;7.35;;;7.00;96.50;;;;;;5047738;28;20043;-82
2021/01/22 11:10:41;;;;;;;18.23;8.23;;;7.00;96.20;;;;;;5081095;28;20040;-84
2021/01/22 11:13:07;;;;;;;16.95;6.55;;;6.90;96.10;;;;;;5065978;28;20511;-83
2021/01/22 11:15:34;;;;;;;14.18;6.50;;;6.90;96.20;;;;;;5049273;28;20048;-83
2021/01/22 11:18:02;;;;;;;13.32;6.63;;;6.80;96.10;;;;;;5050157;28;20044;-82
2021/01/22 11:20:28;;;;;;;14.50;6.75;;;6.80;96.20;;;;;;5084015;28;20048;-83
2021/01/22 11:22:55;;;;;;;18.50;7.07;;;6.80;96.20;;;;;;5069448;28;20071;-83
2021/01/22 11:25:21;;;;;;;14.52;6.57;;;6.80;95.90;;;;;;5064516;28;20040;-82
2021/01/22 11:27:51;;;;;;;11.85;6.00;;;6.70;95.50;;;;;;5095565;28;20051;-83
2021/01/22 11:30:18;;;;;;;11.07;5.70;;;6.60;95.80;;;;;;5067231;28;20056;-82
2021/01/22 11:32:45;;;;;;;15.48;5.60;;;6.70;95.70;;;;;;5087961;28;20087;-82
2021/01/22 11:35:12;;;;;;;13.57;5.78;;;6.60;95.80;;;;;;5079004;28;20056;-83
2021/01/22 11:37:40;;;;;;;16.45;5.95;;;6.70;95.90;;;;;;5069760;28;20040;-83
2021/01/22 11:40:09;;;;;;;14.48;5.68;;;6.70;95.80;;;;;;5049536;28;20040;-82
2021/01/22 11:42:36;;;;;;;10.40;4.55;;;6.80;95.80;;;;;;5067611;28;20036;-83
2021/01/22 11:45:04;;;;;;;12.43;4.93;;;6.90;95.60;;;;;;5068048;28;20066;-83
2021/01/22 11:47:33;;;;;;;19.70;5.88;;;6.90;95.50;;;;;;5084511;28;20044;-87
2021/01/22 11:50:00;;;;;;;13.13;5.28;;;6.90;95.40;;;;;;5069002;28;20047;-89
2021/01/22 11:52:28;;;;;;;11.35;4.90;;;6.90;95.40;;;;;;5084300;28;20059;-84
2021/01/22 11:54:54;;;;;;;14.63;5.65;;;6.90;95.30;;;;;;5061396;28;20040;-85
2021/01/22 11:57:21;;;;;;;12.27;6.05;;;6.90;95.40;;;;;;5065228;28;20504;-83
2021/01/22 11:59:47;;;;;;;14.18;5.05;;;6.90;95.40;;;;;;5074454;28;20040;-83
2021/01/22 12:02:14;;;;;;;12.98;4.25;;;7.00;95.40;;;;;;5049090;28;20239;-83
2021/01/22 12:04:40;;;;;;;18.75;5.45;;;7.00;95.40;;;;;;5040281;28;20036;-82
2021/01/22 12:07:07;;;;;;;10.77;4.10;;;7.00;95.20;;;;;;5078292;28;20055;-82
2021/01/22 12:09:33;;;;;;;11.55;4.93;;;7.10;95.30;;;;;;5082046;28;20527;-82
2021/01/22 12:12:00;;;;;;;13.30;4.20;;;7.10;95.10;;;;;;5054586;28;20487;-83
2021/01/22 12:14:27;;;;;;;14.27;4.72;;;7.10;95.00;;;;;;5084576;28;20044;-82
2021/01/22 12:16:53;;;;;;;12.55;4.38;;;7.20;94.90;;;;;;5082501;28;20048;-84
2021/01/22 12:19:21;;;;;;;13.70;4.40;;;7.20;94.80;;;;;;5084583;28;20044;-81
2021/01/22 12:21:47;;;;;;;11.02;3.88;;;7.30;94.70;;;;;;5082494;28;20055;-82
2021/01/22 12:24:14;;;;;;;13.27;4.38;;;7.20;94.70;;;;;;5084061;28;20051;-84
2021/01/22 12:26:40;;;;;;;12.95;3.88;;;7.20;94.50;;;;;;5081754;28;20507;-84
2021/01/22 12:29:07;;;;;;;14.23;4.55;;;7.30;94.60;;;;;;5051199;28;20039;-82
2021/01/22 12:31:33;;;;;;;14.30;3.60;;;7.30;94.60;;;;;;5080916;28;20040;-83
2021/01/22 12:34:00;;;;;;;12.65;3.42;;;7.30;94.60;;;;;;5068043;28;20036;-83
2021/01/22 12:36:26;;;;;;;12.52;3.92;;;7.30;94.50;;;;;;5065488;28;20045;-83
2021/01/22 12:38:53;;;;;;;14.00;4.25;;;7.30;94.60;;;;;;5055893;28;20031;-82
2021/01/22 12:41:19;;;;;;;12.98;4.35;;;7.20;94.70;;;;;;5050750;28;20063;-84
2021/01/22 12:43:46;;;;;;;10.73;3.38;;;7.20;94.60;;;;;;5066809;28;20586;-83
2021/01/22 12:46:13;;;;;;;9.95;3.25;;;7.20;94.60;;;;;;5050215;28;20039;-84
2021/01/22 12:48:39;;;;;;;16.30;3.13;;;7.10;94.60;;;;;;5085060;28;20028;-83
2021/01/22 12:51:06;;;;;;;14.85;3.60;;;7.00;94.50;;;;;;5085183;28;20054;-85
2021/01/22 12:53:33;;;;;;;13.88;3.00;;;6.90;94.60;;;;;;5083788;28;20367;-83
2021/01/22 12:56:00;;;;;;;11.07;2.72;;;6.90;94.60;;;;;;5081231;28;20048;-83
2021/01/22 12:58:26;;;;;;;7.80;2.60;;;6.90;94.70;;;;;;5067004;28;20044;-83
2021/01/22 13:00:53;;;;;;;13.18;3.47;;;6.80;94.50;;;;;;5065454;28;20056;-83